Time,TemperatureF,DewpointF,PressureIn,WindDirection,WindDirectionDegrees,WindSpeedMPH,WindSpeedGustMPH,Humidity,HourlyPrecipIn,Conditions,Clouds,dailyrainin,SoftwareType,DateUTC
2013-01-22 00:00:00,21.4,19.2,29.81,South,188,0.0,0.0,91,0.00,,,0.00,WeatherCatV1.12B45,2013-01-22 05:00:00,
2013-01-22 00:05:00,21.4,19.2,29.81,South,188,0.0,0.0,91,0.00,,,0.00,WeatherCatV1.12B45,2013-01-22 05:05:00,
2013-01-22 00:10:00,21.4,19.2,29.81,South,188,0.0,0.0,91,0.00,,,0.00,WeatherCatV1.12B45,2013-01-22 05:10:00,
2013-01-22 00:15:00,21.4,19.2,29.81,South,188,0.0,0.0,91,0.00,,,0.00,WeatherCatV1.12B45,2013-01-22 05:15:00,
2013-01-22 00:20:00,21.4,19.2,29.80,South,188,0.0,0.0,91,0.00,,,0.00,WeatherCatV1.12B45,2013-01-22 05:20:00,
2013-01-22 00:25:00,21.3,19.1,29.80,South,188,0.0,0.0,91,0.00,,,0.00,WeatherCatV1.12B45,2013-01-22 05:25:00,
2013-01-22 00:30:00,21.4,18.9,29.79,South,188,0.0,2.0,90,0.00,,,0.00,WeatherCatV1.12B45,2013-01-22 05:30:00,
2013-01-22 00:35:00,21.4,18.9,29.79,South,188,0.0,0.0,90,0.00,,,0.00,WeatherCatV1.12B45,2013-01-22 05:35:00,
2013-01-22 00:40:00,21.4,18.9,29.77,South,188,0.0,0.0,90,0.00,,,0.00,WeatherCatV1.12B45,2013-01-22 05:40:00,
2013-01-22 00:45:00,21.5,19.3,29.77,South,188,0.0,0.0,91,0.00,,,0.00,WeatherCatV1.12B45,2013-01-22 05:45:00,
2013-01-22 00:50:00,21.5,19.3,29.79,South,188,0.0,0.0,91,0.00,,,0.00,WeatherCatV1.12B45,2013-01-22 05:50:00,
2013-01-22 00:55:00,21.5,19.3,29.79,South,188,0.0,0.0,91,0.00,,,0.00,WeatherCatV1.12B45,2013-01-22 05:55:00,
2013-01-22 01:00:00,21.6,19.4,29.78,South,188,0.0,0.0,91,0.00,,,0.00,WeatherCatV1.12B45,2013-01-22 06:00:00,
2013-01-22 01:05:00,21.6,19.1,29.78,South,188,0.0,0.0,90,0.00,,,0.00,WeatherCatV1.12B45,2013-01-22 06:05:00,
2013-01-22 01:10:00,21.5,19.0,29.78,South,188,2.0,2.0,90,0.00,,,0.00,WeatherCatV1.12B45,2013-01-22 06:10:00,
2013-01-22 01:15:00,21.4,18.9,29.77,South,188,0.0,0.0,90,0.00,,,0.00,WeatherCatV1.12B45,2013-01-22 06:15:00,
2013-01-22 01:20:00,21.2,18.7,29.78,South,188,0.0,0.0,90,0.00,,,0.00,WeatherCatV1.12B45,2013-01-22 06:20:00,
2013-01-22 01:25:00,21.1,18.6,29.78,South,188,0.0,0.0,90,0.00,,,0.00,WeatherCatV1.12B45,2013-01-22 06:25:00,
2013-01-22 01:30:00,21.1,18.6,29.80,South,188,0.0,0.0,90,0.00,,,0.00,WeatherCatV1.12B45,2013-01-22 06:30:00,
2013-01-22 01:35:00,21.0,18.5,29.78,South,188,0.0,0.0,90,0.00,,,0.00,WeatherCatV1.12B45,2013-01-22 06:35:00,
2013-01-22 01:40:00,20.9,18.4,29.80,South,188,0.0,0.0,90,0.00,,,0.00,WeatherCatV1.12B45,2013-01-22 06:40:00,
2013-01-22 01:45:00,20.9,18.7,29.78,South,188,0.0,0.0,91,0.00,,,0.00,WeatherCatV1.12B45,2013-01-22 06:45:00,
2013-01-22 01:50:00,20.9,18.4,29.80,South,188,0.0,0.0,90,0.00,,,0.00,WeatherCatV1.12B45,2013-01-22 06:50:00,
2013-01-22 01:55:00,20.7,18.2,29.79,South,188,0.0,0.0,90,0.00,,,0.00,WeatherCatV1.12B45,2013-01-22 06:55:00,
2013-01-22 02:00:00,20.6,18.1,29.78,South,188,0.0,0.0,90,0.00,,,0.00,WeatherCatV1.12B45,2013-01-22 07:00:00,
2013-01-22 02:05:00,20.4,17.9,29.78,South,188,0.0,0.0,90,0.00,,,0.00,WeatherCatV1.12B45,2013-01-22 07:05:00,
2013-01-22 02:10:00,20.5,18.0,29.78,South,188,0.0,0.0,90,0.00,,,0.00,WeatherCatV1.12B45,2013-01-22 07:10:00,
2013-01-22 02:15:00,20.3,17.6,29.78,South,188,0.0,2.0,89,0.00,,,0.00,WeatherCatV1.12B45,2013-01-22 07:15:00,
2013-01-22 02:20:00,20.3,17.8,29.78,South,188,0.0,0.0,90,0.00,,,0.00,WeatherCatV1.12B45,2013-01-22 07:20:00,
2013-01-22 02:25:00,20.4,17.9,29.78,South,188,0.0,0.0,90,0.00,,,0.00,WeatherCatV1.12B45,2013-01-22 07:25:00,
2013-01-22 02:30:00,20.5,18.0,29.78,South,188,0.0,0.0,90,0.00,,,0.00,WeatherCatV1.12B45,2013-01-22 07:30:00,
2013-01-22 02:35:00,20.4,17.7,29.78,South,188,0.0,0.0,89,0.00,,,0.00,WeatherCatV1.12B45,2013-01-22 07:35:00,
2013-01-22 02:40:00,20.3,17.8,29.78,South,188,0.0,0.0,90,0.00,,,0.00,WeatherCatV1.12B45,2013-01-22 07:40:00,
2013-01-22 02:45:00,20.1,17.6,29.78,South,188,0.0,0.0,90,0.00,,,0.00,WeatherCatV1.12B45,2013-01-22 07:45:00,
2013-01-22 02:50:00,19.9,17.5,29.78,South,188,0.0,0.0,90,0.00,,,0.00,WeatherCatV1.12B45,2013-01-22 07:50:00,
2013-01-22 02:55:00,19.8,17.4,29.77,South,188,0.0,0.0,90,0.00,,,0.00,WeatherCatV1.12B45,2013-01-22 07:55:00,
2013-01-22 03:00:00,19.6,17.2,29.78,South,188,0.0,0.0,90,0.00,,,0.00,WeatherCatV1.12B45,2013-01-22 08:00:00,
2013-01-22 03:05:00,19.5,17.1,29.77,South,188,0.0,0.0,90,0.00,,,0.00,WeatherCatV1.12B45,2013-01-22 08:05:00,
2013-01-22 03:10:00,19.4,17.0,29.77,South,188,0.0,0.0,90,0.00,,,0.00,WeatherCatV1.12B45,2013-01-22 08:10:00,
2013-01-22 03:15:00,19.3,16.9,29.77,South,188,0.0,0.0,90,0.00,,,0.00,WeatherCatV1.12B45,2013-01-22 08:15:00,
2013-01-22 03:20:00,19.1,16.7,29.78,South,188,0.0,0.0,90,0.00,,,0.00,WeatherCatV1.12B45,2013-01-22 08:20:00,
2013-01-22 03:25:00,19.0,16.3,29.77,South,188,0.0,0.0,89,0.00,,,0.00,WeatherCatV1.12B45,2013-01-22 08:25:00,
2013-01-22 03:30:00,18.8,16.4,29.76,South,188,0.0,0.0,90,0.00,,,0.00,WeatherCatV1.12B45,2013-01-22 08:30:00,
2013-01-22 03:31:00,18.8,16.4,29.76,South,188,0.0,0.0,90,0.00,,,0.00,WeatherCatV1.12B45,2013-01-22 08:31:00,
2013-01-22 03:36:00,18.6,16.2,29.77,South,188,0.0,0.0,90,0.00,,,0.00,WeatherCatV1.12B45,2013-01-22 08:36:00,
2013-01-22 03:41:00,18.5,15.8,29.77,South,188,0.0,0.0,89,0.00,,,0.00,WeatherCatV1.12B45,2013-01-22 08:41:00,
2013-01-22 03:46:00,18.3,15.9,29.77,South,188,0.0,0.0,90,0.00,,,0.00,WeatherCatV1.12B45,2013-01-22 08:46:00,
2013-01-22 03:51:00,18.4,16.0,29.77,South,188,0.0,0.0,90,0.00,,,0.00,WeatherCatV1.12B45,2013-01-22 08:51:00,
2013-01-22 03:56:00,18.2,15.8,29.77,South,188,0.0,0.0,90,0.00,,,0.00,WeatherCatV1.12B45,2013-01-22 08:56:00,
2013-01-22 04:01:00,18.1,15.7,29.77,South,188,0.0,0.0,90,0.00,,,0.00,WeatherCatV1.12B45,2013-01-22 09:01:00,
2013-01-22 04:06:00,17.8,15.4,29.77,South,188,0.0,0.0,90,0.00,,,0.00,WeatherCatV1.12B45,2013-01-22 09:06:00,
2013-01-22 04:11:00,17.7,15.3,29.77,South,188,0.0,0.0,90,0.00,,,0.00,WeatherCatV1.12B45,2013-01-22 09:11:00,
2013-01-22 04:16:00,17.5,15.1,29.77,South,188,0.0,0.0,90,0.00,,,0.00,WeatherCatV1.12B45,2013-01-22 09:16:00,
2013-01-22 04:21:00,17.4,15.0,29.78,South,188,0.0,0.0,90,0.00,,,0.00,WeatherCatV1.12B45,2013-01-22 09:21:00,
2013-01-22 04:26:00,17.2,14.8,29.77,South,188,0.0,0.0,90,0.00,,,0.00,WeatherCatV1.12B45,2013-01-22 09:26:00,
2013-01-22 04:31:00,17.1,14.4,29.77,South,188,0.0,0.0,89,0.00,,,0.00,WeatherCatV1.12B45,2013-01-22 09:31:00,
2013-01-22 04:36:00,17.1,14.7,29.77,South,188,0.0,0.0,90,0.00,,,0.00,WeatherCatV1.12B45,2013-01-22 09:36:00,
2013-01-22 04:41:00,17.4,15.0,29.77,South,188,0.0,0.0,90,0.00,,,0.00,WeatherCatV1.12B45,2013-01-22 09:41:00,
2013-01-22 04:46:00,17.6,15.4,29.77,South,188,0.0,0.0,91,0.00,,,0.00,WeatherCatV1.12B45,2013-01-22 09:46:00,
2013-01-22 04:51:00,17.6,15.4,29.77,South,188,0.0,0.0,91,0.00,,,0.00,WeatherCatV1.12B45,2013-01-22 09:51:00,
2013-01-22 04:56:00,17.5,15.3,29.77,South,188,0.0,0.0,91,0.00,,,0.00,WeatherCatV1.12B45,2013-01-22 09:56:00,
2013-01-22 05:01:00,17.5,15.3,29.78,South,188,0.0,0.0,91,0.00,,,0.00,WeatherCatV1.12B45,2013-01-22 10:01:00,
2013-01-22 05:06:00,17.4,15.2,29.78,South,188,0.0,0.0,91,0.00,,,0.00,WeatherCatV1.12B45,2013-01-22 10:06:00,
2013-01-22 05:11:00,17.4,15.2,29.78,South,188,0.0,0.0,91,0.00,,,0.00,WeatherCatV1.12B45,2013-01-22 10:11:00,
2013-01-22 05:16:00,17.4,15.0,29.77,South,188,0.0,0.0,90,0.00,,,0.00,WeatherCatV1.12B45,2013-01-22 10:16:00,
2013-01-22 05:21:00,17.4,15.2,29.78,South,188,0.0,0.0,91,0.00,,,0.00,WeatherCatV1.12B45,2013-01-22 10:21:00,
2013-01-22 05:26:00,17.4,15.0,29.78,South,188,0.0,0.0,90,0.00,,,0.00,WeatherCatV1.12B45,2013-01-22 10:26:00,
2013-01-22 05:31:00,17.6,15.4,29.78,South,188,0.0,0.0,91,0.00,,,0.00,WeatherCatV1.12B45,2013-01-22 10:31:00,
2013-01-22 05:36:00,17.7,15.5,29.79,South,188,0.0,1.0,91,0.00,,,0.00,WeatherCatV1.12B45,2013-01-22 10:36:00,
2013-01-22 05:41:00,17.9,15.5,29.78,South,188,0.0,0.0,90,0.00,,,0.00,WeatherCatV1.12B45,2013-01-22 10:41:00,
2013-01-22 05:46:00,17.9,15.7,29.79,South,188,0.0,0.0,91,0.00,,,0.00,WeatherCatV1.12B45,2013-01-22 10:46:00,
2013-01-22 05:51:00,17.9,15.7,29.79,South,188,0.0,0.0,91,0.00,,,0.00,WeatherCatV1.12B45,2013-01-22 10:51:00,
2013-01-22 05:56:00,17.7,15.3,29.79,South,188,0.0,0.0,90,0.00,,,0.00,WeatherCatV1.12B45,2013-01-22 10:56:00,
2013-01-22 06:01:00,17.7,15.5,29.79,South,188,0.0,0.0,91,0.00,,,0.00,WeatherCatV1.12B45,2013-01-22 11:01:00,
2013-01-22 06:06:00,17.7,15.5,29.80,South,188,0.0,0.0,91,0.00,,,0.00,WeatherCatV1.12B45,2013-01-22 11:06:00,
2013-01-22 06:11:00,17.7,15.5,29.80,South,188,0.0,0.0,91,0.00,,,0.00,WeatherCatV1.12B45,2013-01-22 11:11:00,
2013-01-22 06:16:00,17.9,15.7,29.80,South,188,0.0,0.0,91,0.00,,,0.00,WeatherCatV1.12B45,2013-01-22 11:16:00,
2013-01-22 06:21:00,17.9,15.7,29.80,South,188,0.0,0.0,91,0.00,,,0.00,WeatherCatV1.12B45,2013-01-22 11:21:00,
2013-01-22 06:26:00,17.7,15.5,29.80,South,188,0.0,0.0,91,0.00,,,0.00,WeatherCatV1.12B45,2013-01-22 11:26:00,
2013-01-22 06:31:00,17.7,15.5,29.80,South,188,0.0,0.0,91,0.00,,,0.00,WeatherCatV1.12B45,2013-01-22 11:31:00,
2013-01-22 06:36:00,17.7,15.5,29.81,South,188,0.0,0.0,91,0.00,,,0.00,WeatherCatV1.12B45,2013-01-22 11:36:00,
2013-01-22 06:41:00,17.8,15.6,29.81,South,188,0.0,0.0,91,0.00,,,0.00,WeatherCatV1.12B45,2013-01-22 11:41:00,
2013-01-22 06:46:00,17.7,15.5,29.81,South,188,0.0,0.0,91,0.00,,,0.00,WeatherCatV1.12B45,2013-01-22 11:46:00,
2013-01-22 06:51:00,17.7,15.3,29.81,South,188,0.0,0.0,90,0.00,,,0.00,WeatherCatV1.12B45,2013-01-22 11:51:00,
2013-01-22 06:56:00,17.7,15.3,29.81,South,188,0.0,0.0,90,0.00,,,0.00,WeatherCatV1.12B45,2013-01-22 11:56:00,
2013-01-22 07:01:00,17.7,15.0,29.81,South,188,0.0,0.0,89,0.00,,,0.00,WeatherCatV1.12B45,2013-01-22 12:01:00,
2013-01-22 07:06:00,17.7,15.0,29.81,South,188,0.0,0.0,89,0.00,,,0.00,WeatherCatV1.12B45,2013-01-22 12:06:00,
2013-01-22 07:11:00,17.7,15.0,29.82,South,188,1.0,2.0,89,0.00,,,0.00,WeatherCatV1.12B45,2013-01-22 12:11:00,
2013-01-22 07:16:00,18.2,15.0,29.82,South,188,0.0,0.0,87,0.00,,,0.00,WeatherCatV1.12B45,2013-01-22 12:16:00,
2013-01-22 07:21:00,18.3,14.6,29.82,South,188,0.0,1.0,85,0.00,,,0.00,WeatherCatV1.12B45,2013-01-22 12:21:00,
2013-01-22 07:26:00,18.4,14.4,29.82,South,188,0.0,1.0,84,0.00,,,0.00,WeatherCatV1.12B45,2013-01-22 12:26:00,
2013-01-22 07:31:00,18.5,14.2,29.83,South,188,0.0,0.0,83,0.00,,,0.00,WeatherCatV1.12B45,2013-01-22 12:31:00,
2013-01-22 07:36:00,18.7,13.9,29.82,West,274,0.0,1.0,81,0.00,,,0.00,WeatherCatV1.12B45,2013-01-22 12:36:00,
2013-01-22 07:41:00,18.8,14.0,29.83,West,274,0.0,2.0,81,0.00,,,0.00,WeatherCatV1.12B45,2013-01-22 12:41:00,
2013-01-22 07:46:00,18.8,13.4,29.83,West,274,0.0,0.0,79,0.00,,,0.00,WeatherCatV1.12B45,2013-01-22 12:46:00,
2013-01-22 07:51:00,18.8,13.1,29.84,West,274,0.0,0.0,78,0.00,,,0.00,WeatherCatV1.12B45,2013-01-22 12:51:00,
2013-01-22 07:56:00,18.8,13.1,29.83,West,274,0.0,0.0,78,0.00,,,0.00,WeatherCatV1.12B45,2013-01-22 12:56:00,
2013-01-22 08:01:00,18.8,13.1,29.84,West,274,3.0,3.0,78,0.00,,,0.00,WeatherCatV1.12B45,2013-01-22 13:01:00,
2013-01-22 08:02:00,18.8,13.1,29.83,WNW,286,0.0,4.0,78,0.00,,,0.00,WeatherCatV1.12B45,2013-01-22 13:02:00,
2013-01-22 08:06:00,18.8,12.8,29.83,WNW,286,0.0,1.0,77,0.00,,,0.00,WeatherCatV1.12B45,2013-01-22 13:06:00,
2013-01-22 08:11:00,19.1,13.1,29.84,WNW,286,1.0,2.0,77,0.00,,,0.00,WeatherCatV1.12B45,2013-01-22 13:11:00,
2013-01-22 08:16:00,19.3,12.4,29.84,NE,50,0.0,5.0,74,0.00,,,0.00,WeatherCatV1.12B45,2013-01-22 13:16:00,
2013-01-22 08:21:00,19.5,12.3,29.85,NW,326,0.0,3.0,73,0.00,,,0.00,WeatherCatV1.12B45,2013-01-22 13:21:00,
2013-01-22 08:26:00,19.7,12.5,29.84,NW,326,1.0,2.0,73,0.00,,,0.00,WeatherCatV1.12B45,2013-01-22 13:26:00,
2013-01-22 08:31:00,19.9,12.0,29.85,NNW,334,5.0,6.0,71,0.00,,,0.00,WeatherCatV1.12B45,2013-01-22 13:31:00,
2013-01-22 08:36:00,19.7,11.2,29.85,WNW,285,4.0,6.0,69,0.00,,,0.00,WeatherCatV1.12B45,2013-01-22 13:36:00,
2013-01-22 08:41:00,19.9,11.4,29.85,WNW,297,1.0,5.0,69,0.00,,,0.00,WeatherCatV1.12B45,2013-01-22 13:41:00,
2013-01-22 08:46:00,20.0,10.8,29.85,NW,321,4.0,15.0,67,0.00,,,0.00,WeatherCatV1.12B45,2013-01-22 13:46:00,
2013-01-22 08:51:00,20.1,10.3,29.86,West,275,1.0,12.0,65,0.00,,,0.00,WeatherCatV1.12B45,2013-01-22 13:51:00,
2013-01-22 08:56:00,20.3,10.4,29.85,WSW,258,4.0,4.0,65,0.00,,,0.00,WeatherCatV1.12B45,2013-01-22 13:56:00,
2013-01-22 09:01:00,20.6,10.4,29.85,West,274,6.0,6.0,64,0.00,,,0.00,WeatherCatV1.12B45,2013-01-22 14:01:00,
2013-01-22 09:06:00,20.8,10.9,29.85,WNW,289,5.0,5.0,65,0.00,,,0.00,WeatherCatV1.12B45,2013-01-22 14:06:00,
2013-01-22 09:11:00,20.9,10.3,29.85,WNW,293,1.0,3.0,63,0.00,,,0.00,WeatherCatV1.12B45,2013-01-22 14:11:00,
2013-01-22 09:16:00,21.2,10.6,29.86,WNW,293,0.0,3.0,63,0.00,,,0.00,WeatherCatV1.12B45,2013-01-22 14:16:00,
2013-01-22 09:21:00,21.1,9.8,29.86,WNW,293,8.0,8.0,61,0.00,,,0.00,WeatherCatV1.12B45,2013-01-22 14:21:00,
2013-01-22 09:26:00,21.2,10.2,29.86,NE,44,3.0,3.0,62,0.00,,,0.00,WeatherCatV1.12B45,2013-01-22 14:26:00,
2013-01-22 09:31:00,21.5,10.2,29.86,WNW,296,0.0,7.0,61,0.00,,,0.00,WeatherCatV1.12B45,2013-01-22 14:31:00,
2013-01-22 09:36:00,21.7,10.7,29.86,West,266,4.0,8.0,62,0.00,,,0.00,WeatherCatV1.12B45,2013-01-22 14:36:00,
2013-01-22 09:41:00,21.7,10.4,29.86,WNW,287,6.0,13.0,61,0.00,,,0.00,WeatherCatV1.12B45,2013-01-22 14:41:00,
2013-01-22 09:46:00,21.7,9.2,29.87,WNW,283,1.0,9.0,58,0.00,,,0.00,WeatherCatV1.12B45,2013-01-22 14:46:00,
2013-01-22 09:51:00,21.5,9.0,29.87,WNW,285,3.0,10.0,58,0.00,,,0.00,WeatherCatV1.12B45,2013-01-22 14:51:00,
2013-01-22 09:56:00,21.8,9.3,29.86,WNW,297,3.0,7.0,58,0.00,,,0.00,WeatherCatV1.12B45,2013-01-22 14:56:00,
2013-01-22 10:01:00,21.8,8.9,29.87,NW,320,6.0,7.0,57,0.00,,,0.00,WeatherCatV1.12B45,2013-01-22 15:01:00,
2013-01-22 10:06:00,21.8,8.9,29.87,WNW,299,5.0,6.0,57,0.00,,,0.00,WeatherCatV1.12B45,2013-01-22 15:06:00,
2013-01-22 10:11:00,22.0,9.5,29.87,WNW,296,5.0,8.0,58,0.00,,,0.00,WeatherCatV1.12B45,2013-01-22 15:11:00,
2013-01-22 10:16:00,22.3,9.0,29.87,West,281,8.0,14.0,56,0.00,,,0.00,WeatherCatV1.12B45,2013-01-22 15:16:00,
2013-01-22 10:21:00,21.8,8.1,29.87,WNW,303,3.0,12.0,55,0.00,,,0.00,WeatherCatV1.12B45,2013-01-22 15:21:00,
2013-01-22 10:22:00,21.8,8.1,29.87,WNW,293,6.0,12.0,55,0.00,,,0.00,WeatherCatV1.12B45,2013-01-22 15:22:00,
2013-01-22 10:27:00,21.8,8.5,29.87,West,266,6.0,11.0,56,0.00,,,0.00,WeatherCatV1.12B45,2013-01-22 15:27:00,
2013-01-22 10:31:00,21.4,8.2,29.87,NNW,337,5.0,10.0,56,0.00,,,0.00,WeatherCatV1.12B45,2013-01-22 15:31:00,
2013-01-22 10:36:00,21.7,8.5,29.87,WNW,303,0.0,2.0,56,0.00,,,0.00,WeatherCatV1.12B45,2013-01-22 15:36:00,
2013-01-22 10:41:00,22.0,8.3,29.87,NW,309,3.0,10.0,55,0.00,,,0.00,WeatherCatV1.12B45,2013-01-22 15:41:00,
2013-01-22 10:42:00,22.1,8.4,29.87,NNE,19,2.0,6.0,55,0.00,,,0.00,WeatherCatV1.12B45,2013-01-22 15:42:00,
2013-01-22 10:47:00,22.0,8.3,29.87,NNW,328,2.0,9.0,55,0.00,,,0.00,WeatherCatV1.12B45,2013-01-22 15:47:00,
2013-01-22 10:51:00,21.7,8.1,29.87,North,356,1.0,6.0,55,0.00,,,0.00,WeatherCatV1.12B45,2013-01-22 15:51:00,
2013-01-22 10:52:00,21.8,8.5,29.87,West,263,10.0,10.0,56,0.00,,,0.00,WeatherCatV1.12B45,2013-01-22 15:52:00,
2013-01-22 10:57:00,21.8,7.7,29.87,West,278,6.0,8.0,54,0.00,,,0.00,WeatherCatV1.12B45,2013-01-22 15:57:00,
2013-01-22 11:02:00,22.6,9.7,29.87,SW,224,5.0,8.0,57,0.00,,,0.00,WeatherCatV1.12B45,2013-01-22 16:02:00,
2013-01-22 11:07:00,22.4,8.7,29.86,WNW,290,3.0,7.0,55,0.00,,,0.00,WeatherCatV1.12B45,2013-01-22 16:07:00,
2013-01-22 11:11:00,22.3,9.4,29.86,WNW,282,3.0,10.0,57,0.00,,,0.00,WeatherCatV1.12B45,2013-01-22 16:11:00,
2013-01-22 11:16:00,22.1,9.2,29.87,WNW,301,0.0,4.0,57,0.00,,,0.00,WeatherCatV1.12B45,2013-01-22 16:16:00,
2013-01-22 11:21:00,22.1,8.8,29.86,WSW,245,2.0,8.0,56,0.00,,,0.00,WeatherCatV1.12B45,2013-01-22 16:21:00,
2013-01-22 11:26:00,21.5,7.9,29.86,WNW,282,2.0,6.0,55,0.00,,,0.00,WeatherCatV1.12B45,2013-01-22 16:26:00,
2013-01-22 11:27:00,21.4,7.8,29.86,WNW,282,3.0,6.0,55,0.00,,,0.00,WeatherCatV1.12B45,2013-01-22 16:27:00,
2013-01-22 11:32:00,21.2,7.2,29.87,WSW,249,3.0,13.0,54,0.00,,,0.00,WeatherCatV1.12B45,2013-01-22 16:32:00,
2013-01-22 11:37:00,21.1,7.5,29.86,West,281,0.0,4.0,55,0.00,,,0.00,WeatherCatV1.12B45,2013-01-22 16:37:00,
2013-01-22 11:42:00,21.2,7.6,29.86,NW,316,7.0,7.0,55,0.00,,,0.00,WeatherCatV1.12B45,2013-01-22 16:42:00,
2013-01-22 11:47:00,21.4,7.8,29.86,West,261,2.0,5.0,55,0.00,,,0.00,WeatherCatV1.12B45,2013-01-22 16:47:00,
2013-01-22 11:52:00,21.7,7.2,29.85,WSW,247,4.0,6.0,53,0.00,,,0.00,WeatherCatV1.12B45,2013-01-22 16:52:00,
2013-01-22 11:57:00,22.0,8.3,29.86,West,278,6.0,15.0,55,0.00,,,0.00,WeatherCatV1.12B45,2013-01-22 16:57:00,
2013-01-22 12:02:00,21.5,7.1,29.86,NNW,344,4.0,8.0,53,0.00,,,0.00,WeatherCatV1.12B45,2013-01-22 17:02:00,
2013-01-22 12:07:00,21.2,6.4,29.85,NNW,337,3.0,6.0,52,0.00,,,0.00,WeatherCatV1.12B45,2013-01-22 17:07:00,
2013-01-22 12:11:00,21.1,6.3,29.86,WNW,293,4.0,11.0,52,0.00,,,0.00,WeatherCatV1.12B45,2013-01-22 17:11:00,
2013-01-22 12:16:00,21.5,6.6,29.85,SW,233,2.0,8.0,52,0.00,,,0.00,WeatherCatV1.12B45,2013-01-22 17:16:00,
2013-01-22 12:21:00,21.8,6.1,29.86,West,281,3.0,6.0,50,0.00,,,0.00,WeatherCatV1.12B45,2013-01-22 17:21:00,
2013-01-22 12:26:00,21.4,5.7,29.85,WSW,237,3.0,10.0,50,0.00,,,0.00,WeatherCatV1.12B45,2013-01-22 17:26:00,
2013-01-22 12:31:00,20.9,4.8,29.85,WSW,252,3.0,12.0,49,0.00,,,0.00,WeatherCatV1.12B45,2013-01-22 17:31:00,
2013-01-22 12:36:00,20.6,4.9,29.85,WSW,257,5.0,6.0,50,0.00,,,0.00,WeatherCatV1.12B45,2013-01-22 17:36:00,
2013-01-22 12:41:00,20.8,5.6,29.85,NW,322,5.0,8.0,51,0.00,,,0.00,WeatherCatV1.12B45,2013-01-22 17:41:00,
2013-01-22 12:46:00,20.8,5.1,29.86,WNW,293,2.0,5.0,50,0.00,,,0.00,WeatherCatV1.12B45,2013-01-22 17:46:00,
2013-01-22 12:51:00,20.9,5.2,29.85,SE,138,0.0,10.0,50,0.00,,,0.00,WeatherCatV1.12B45,2013-01-22 17:51:00,
2013-01-22 12:56:00,20.8,5.1,29.87,NW,309,2.0,5.0,50,0.00,,,0.00,WeatherCatV1.12B45,2013-01-22 17:56:00,
2013-01-22 13:01:00,20.8,4.7,29.85,NW,321,5.0,5.0,49,0.00,,,0.00,WeatherCatV1.12B45,2013-01-22 18:01:00,
2013-01-22 13:06:00,20.9,4.3,29.86,WNW,285,1.0,4.0,48,0.00,,,0.00,WeatherCatV1.12B45,2013-01-22 18:06:00,
2013-01-22 13:11:00,21.4,5.7,29.85,NE,40,3.0,6.0,50,0.00,,,0.00,WeatherCatV1.12B45,2013-01-22 18:11:00,
2013-01-22 13:16:00,22.0,5.3,29.85,NW,319,5.0,6.0,48,0.00,,,0.00,WeatherCatV1.12B45,2013-01-22 18:16:00,
2013-01-22 13:21:00,22.6,5.9,29.86,North,359,1.0,7.0,48,0.00,,,0.00,WeatherCatV1.12B45,2013-01-22 18:21:00,
2013-01-22 13:26:00,22.1,4.5,29.86,NNW,340,5.0,7.0,46,0.00,,,0.00,WeatherCatV1.12B45,2013-01-22 18:26:00,
2013-01-22 13:31:00,22.0,4.9,29.86,NW,321,5.0,7.0,47,0.00,,,0.00,WeatherCatV1.12B45,2013-01-22 18:31:00,
2013-01-22 13:36:00,22.0,4.4,29.86,NW,323,1.0,7.0,46,0.00,,,0.00,WeatherCatV1.12B45,2013-01-22 18:36:00,
2013-01-22 13:41:00,22.3,5.2,29.86,WNW,283,3.0,8.0,47,0.00,,,0.00,WeatherCatV1.12B45,2013-01-22 18:41:00,
2013-01-22 13:47:00,22.6,4.5,29.86,North,8,4.0,8.0,45,0.00,,,0.00,WeatherCatV1.12B45,2013-01-22 18:47:00,
2013-01-22 13:52:00,22.7,4.6,29.86,West,273,10.0,11.0,45,0.00,,,0.00,WeatherCatV1.12B45,2013-01-22 18:52:00,
2013-01-22 13:57:00,22.7,4.1,29.86,North,358,7.0,8.0,44,0.00,,,0.00,WeatherCatV1.12B45,2013-01-22 18:57:00,
2013-01-22 14:02:00,22.9,3.3,29.86,WNW,287,3.0,8.0,42,0.00,,,0.00,WeatherCatV1.12B45,2013-01-22 19:02:00,
2013-01-22 14:06:00,22.7,3.6,29.86,SW,220,8.0,8.0,43,0.00,,,0.00,WeatherCatV1.12B45,2013-01-22 19:06:00,
2013-01-22 14:11:00,22.9,3.8,29.86,SW,217,5.0,8.0,43,0.00,,,0.00,WeatherCatV1.12B45,2013-01-22 19:11:00,
2013-01-22 14:16:00,23.1,4.0,29.87,SW,217,2.0,10.0,43,0.00,,,0.00,WeatherCatV1.12B45,2013-01-22 19:16:00,
2013-01-22 14:17:00,23.1,5.0,29.87,SW,217,1.0,10.0,45,0.00,,,0.00,WeatherCatV1.12B45,2013-01-22 19:17:00,
2013-01-22 14:22:00,23.2,5.5,29.88,West,274,4.0,7.0,46,0.00,,,0.00,WeatherCatV1.12B45,2013-01-22 19:22:00,
2013-01-22 14:27:00,22.5,3.4,29.88,WNW,298,6.0,9.0,43,0.00,,,0.00,WeatherCatV1.12B45,2013-01-22 19:27:00,
2013-01-22 14:31:00,22.4,2.8,29.88,WNW,287,4.0,12.0,42,0.00,,,0.00,WeatherCatV1.12B45,2013-01-22 19:31:00,
2013-01-22 14:36:00,22.4,3.3,29.88,NNE,31,1.0,9.0,43,0.00,,,0.00,WeatherCatV1.12B45,2013-01-22 19:36:00,
2013-01-22 14:41:00,22.1,3.1,29.88,WSW,258,1.0,8.0,43,0.00,,,0.00,WeatherCatV1.12B45,2013-01-22 19:41:00,
2013-01-22 14:46:00,22.0,3.0,29.89,West,269,5.0,9.0,43,0.00,,,0.00,WeatherCatV1.12B45,2013-01-22 19:46:00,
2013-01-22 14:48:00,22.0,3.5,29.89,West,272,7.0,8.0,44,0.00,,,0.00,WeatherCatV1.12B45,2013-01-22 19:48:00,
2013-01-22 14:53:00,21.7,2.7,29.89,WSW,258,9.0,11.0,43,0.00,,,0.00,WeatherCatV1.12B45,2013-01-22 19:53:00,
2013-01-22 14:56:00,21.5,1.5,29.89,WNW,300,3.0,6.0,41,0.00,,,0.00,WeatherCatV1.12B45,2013-01-22 19:56:00,
2013-01-22 14:57:00,21.5,1.5,29.89,West,272,5.0,8.0,41,0.00,,,0.00,WeatherCatV1.12B45,2013-01-22 19:57:00,
2013-01-22 14:58:00,21.5,2.5,29.90,West,265,5.0,8.0,43,0.00,,,0.00,WeatherCatV1.12B45,2013-01-22 19:58:00,
2013-01-22 15:03:00,21.4,1.9,29.89,West,274,1.0,7.0,42,0.00,,,0.00,WeatherCatV1.12B45,2013-01-22 20:03:00,
2013-01-22 15:06:00,21.2,1.7,29.90,West,271,4.0,8.0,42,0.00,,,0.00,WeatherCatV1.12B45,2013-01-22 20:06:00,
2013-01-22 15:12:00,21.2,1.7,29.91,WNW,286,10.0,10.0,42,0.00,,,0.00,WeatherCatV1.12B45,2013-01-22 20:12:00,
2013-01-22 15:16:00,20.9,2.0,29.91,WNW,283,3.0,8.0,43,0.00,,,0.00,WeatherCatV1.12B45,2013-01-22 20:16:00,
2013-01-22 15:21:00,20.9,2.0,29.90,NW,310,2.0,10.0,43,0.00,,,0.00,WeatherCatV1.12B45,2013-01-22 20:21:00,
2013-01-22 15:26:00,20.9,2.5,29.92,WSW,245,3.0,5.0,44,0.00,,,0.00,WeatherCatV1.12B45,2013-01-22 20:26:00,
2013-01-22 15:31:00,21.1,2.6,29.91,West,281,2.0,5.0,44,0.00,,,0.00,WeatherCatV1.12B45,2013-01-22 20:31:00,
2013-01-22 15:36:00,21.2,2.7,29.91,WNW,287,4.0,11.0,44,0.00,,,0.00,WeatherCatV1.12B45,2013-01-22 20:36:00,
2013-01-22 15:41:00,21.1,2.6,29.91,West,262,3.0,7.0,44,0.00,,,0.00,WeatherCatV1.12B45,2013-01-22 20:41:00,
2013-01-22 15:46:00,20.8,1.9,29.92,WNW,285,5.0,6.0,43,0.00,,,0.00,WeatherCatV1.12B45,2013-01-22 20:46:00,
2013-01-22 15:51:00,20.5,2.1,29.92,WNW,286,8.0,8.0,44,0.00,,,0.00,WeatherCatV1.12B45,2013-01-22 20:51:00,
2013-01-22 15:52:00,20.3,1.9,29.91,WNW,298,4.0,8.0,44,0.00,,,0.00,WeatherCatV1.12B45,2013-01-22 20:52:00,
2013-01-22 15:56:00,19.9,2.0,29.92,West,267,4.0,8.0,45,0.00,,,0.00,WeatherCatV1.12B45,2013-01-22 20:56:00,
2013-01-22 16:01:00,19.6,1.7,29.92,West,262,5.0,5.0,45,0.00,,,0.00,WeatherCatV1.12B45,2013-01-22 21:01:00,
2013-01-22 16:06:00,19.4,1.1,29.92,WNW,285,4.0,6.0,44,0.00,,,0.00,WeatherCatV1.12B45,2013-01-22 21:06:00,
2013-01-22 16:11:00,19.3,1.9,29.93,WNW,285,2.0,6.0,46,0.00,,,0.00,WeatherCatV1.12B45,2013-01-22 21:11:00,
2013-01-22 16:16:00,19.1,1.3,29.93,West,268,7.0,11.0,45,0.00,,,0.00,WeatherCatV1.12B45,2013-01-22 21:16:00,
2013-01-22 16:21:00,18.9,1.1,29.94,West,264,1.0,3.0,45,0.00,,,0.00,WeatherCatV1.12B45,2013-01-22 21:21:00,
2013-01-22 16:26:00,19.0,1.7,29.93,West,264,0.0,4.0,46,0.00,,,0.00,WeatherCatV1.12B45,2013-01-22 21:26:00,
2013-01-22 16:31:00,18.8,1.5,29.94,West,262,1.0,5.0,46,0.00,,,0.00,WeatherCatV1.12B45,2013-01-22 21:31:00,
2013-01-22 16:36:00,18.8,1.0,29.94,West,263,1.0,3.0,45,0.00,,,0.00,WeatherCatV1.12B45,2013-01-22 21:36:00,
2013-01-22 16:41:00,18.7,0.9,29.94,West,261,0.0,4.0,45,0.00,,,0.00,WeatherCatV1.12B45,2013-01-22 21:41:00,
2013-01-22 16:42:00,18.5,1.2,29.94,West,262,4.0,5.0,46,0.00,,,0.00,WeatherCatV1.12B45,2013-01-22 21:42:00,
2013-01-22 16:43:00,18.5,1.2,29.94,West,259,7.0,7.0,46,0.00,,,0.00,WeatherCatV1.12B45,2013-01-22 21:43:00,
2013-01-22 16:48:00,18.3,0.6,29.95,WSW,256,1.0,6.0,45,0.00,,,0.00,WeatherCatV1.12B45,2013-01-22 21:48:00,
2013-01-22 16:53:00,18.2,0.5,29.94,West,269,4.0,9.0,45,0.00,,,0.00,WeatherCatV1.12B45,2013-01-22 21:53:00,
2013-01-22 16:58:00,18.0,-0.2,29.95,WNW,286,7.0,10.0,44,0.00,,,0.00,WeatherCatV1.12B45,2013-01-22 21:58:00,
2013-01-22 17:01:00,17.8,0.1,29.96,WNW,286,6.0,7.0,45,0.00,,,0.00,WeatherCatV1.12B45,2013-01-22 22:01:00,
2013-01-22 17:06:00,17.7,-0.5,29.96,West,266,4.0,7.0,44,0.00,,,0.00,WeatherCatV1.12B45,2013-01-22 22:06:00,
2013-01-22 17:11:00,17.6,0.4,29.96,West,281,1.0,4.0,46,0.00,,,0.00,WeatherCatV1.12B45,2013-01-22 22:11:00,
2013-01-22 17:16:00,17.4,0.2,29.96,West,268,3.0,7.0,46,0.00,,,0.00,WeatherCatV1.12B45,2013-01-22 22:16:00,
2013-01-22 17:21:00,17.2,0.5,29.97,West,269,1.0,3.0,47,0.00,,,0.00,WeatherCatV1.12B45,2013-01-22 22:21:00,
2013-01-22 17:26:00,17.1,0.8,29.97,West,270,6.0,7.0,48,0.00,,,0.00,WeatherCatV1.12B45,2013-01-22 22:26:00,
2013-01-22 17:31:00,16.9,1.1,29.97,West,272,0.0,5.0,49,0.00,,,0.00,WeatherCatV1.12B45,2013-01-22 22:31:00,
2013-01-22 17:36:00,16.8,0.6,29.97,West,263,1.0,11.0,48,0.00,,,0.00,WeatherCatV1.12B45,2013-01-22 22:36:00,
2013-01-22 17:41:00,16.8,1.0,29.99,West,267,4.0,6.0,49,0.00,,,0.00,WeatherCatV1.12B45,2013-01-22 22:41:00,
2013-01-22 17:46:00,16.8,0.6,29.98,West,268,4.0,5.0,48,0.00,,,0.00,WeatherCatV1.12B45,2013-01-22 22:46:00,
2013-01-22 17:51:00,16.6,0.8,29.98,West,268,0.0,5.0,49,0.00,,,0.00,WeatherCatV1.12B45,2013-01-22 22:51:00,
2013-01-22 17:55:00,16.4,0.2,29.99,West,273,3.0,7.0,48,0.00,,,0.00,WeatherCatV1.12B45,2013-01-22 22:55:00,
2013-01-22 17:56:00,16.4,0.2,29.98,West,274,2.0,7.0,48,0.00,,,0.00,WeatherCatV1.12B45,2013-01-22 22:56:00,
2013-01-22 18:01:00,16.3,0.1,29.99,West,275,4.0,7.0,48,0.00,,,0.00,WeatherCatV1.12B45,2013-01-22 23:01:00,
2013-01-22 18:06:00,16.3,0.5,30.00,West,275,1.0,5.0,49,0.00,,,0.00,WeatherCatV1.12B45,2013-01-22 23:06:00,
2013-01-22 18:11:00,16.1,0.3,30.00,West,275,1.0,4.0,49,0.00,,,0.00,WeatherCatV1.12B45,2013-01-22 23:11:00,
2013-01-22 18:16:00,15.9,0.2,30.00,West,275,0.0,0.0,49,0.00,,,0.00,WeatherCatV1.12B45,2013-01-22 23:16:00,
2013-01-22 18:22:00,15.8,0.1,30.01,West,275,0.0,0.0,49,0.00,,,0.00,WeatherCatV1.12B45,2013-01-22 23:22:00,
2013-01-22 18:23:00,15.8,0.5,30.00,West,275,3.0,4.0,50,0.00,,,0.00,WeatherCatV1.12B45,2013-01-22 23:23:00,
2013-01-22 18:26:00,15.6,0.3,30.01,West,275,2.0,5.0,50,0.00,,,0.00,WeatherCatV1.12B45,2013-01-22 23:26:00,
2013-01-22 18:31:00,15.6,0.3,30.01,West,275,2.0,2.0,50,0.00,,,0.00,WeatherCatV1.12B45,2013-01-22 23:31:00,
2013-01-22 18:36:00,15.5,-0.2,30.02,West,275,3.0,4.0,49,0.00,,,0.00,WeatherCatV1.12B45,2013-01-22 23:36:00,
2013-01-22 18:41:00,15.5,-0.2,30.01,West,275,3.0,6.0,49,0.00,,,0.00,WeatherCatV1.12B45,2013-01-22 23:41:00,
2013-01-22 18:46:00,15.5,-0.2,30.01,West,275,2.0,4.0,49,0.00,,,0.00,WeatherCatV1.12B45,2013-01-22 23:46:00,
2013-01-22 18:51:00,15.3,-0.4,30.03,West,275,1.0,4.0,49,0.00,,,0.00,WeatherCatV1.12B45,2013-01-22 23:51:00,
2013-01-22 18:56:00,15.3,-0.4,30.02,West,275,0.0,2.0,49,0.00,,,0.00,WeatherCatV1.12B45,2013-01-22 23:56:00,
2013-01-22 19:01:00,15.3,0.0,30.02,West,275,0.0,2.0,50,0.00,,,0.00,WeatherCatV1.12B45,2013-01-23 00:01:00,
2013-01-22 19:06:00,15.2,-0.5,30.02,West,275,0.0,6.0,49,0.00,,,0.00,WeatherCatV1.12B45,2013-01-23 00:06:00,
2013-01-22 19:11:00,15.0,-0.2,30.02,West,275,0.0,1.0,50,0.00,,,0.00,WeatherCatV1.12B45,2013-01-23 00:11:00,
2013-01-22 19:16:00,15.0,0.2,30.03,West,275,4.0,5.0,51,0.00,,,0.00,WeatherCatV1.12B45,2013-01-23 00:16:00,
2013-01-22 19:19:00,15.2,-0.1,30.03,West,275,0.0,3.0,50,0.00,,,0.00,WeatherCatV1.12B45,2013-01-23 00:19:00,
2013-01-22 19:24:00,15.1,-0.2,30.03,West,275,0.0,4.0,50,0.00,,,0.00,WeatherCatV1.12B45,2013-01-23 00:24:00,
2013-01-22 19:29:00,15.0,-0.2,30.03,West,275,0.0,3.0,50,0.00,,,0.00,WeatherCatV1.12B45,2013-01-23 00:29:00,
2013-01-22 19:34:00,14.8,-0.4,30.03,West,275,2.0,6.0,50,0.00,,,0.00,WeatherCatV1.12B45,2013-01-23 00:34:00,
2013-01-22 19:36:00,14.8,-0.4,30.04,West,275,3.0,5.0,50,0.00,,,0.00,WeatherCatV1.12B45,2013-01-23 00:36:00,
2013-01-22 19:41:00,14.8,0.0,30.03,West,275,0.0,0.0,51,0.00,,,0.00,WeatherCatV1.12B45,2013-01-23 00:41:00,
2013-01-22 19:46:00,14.7,-0.5,30.03,West,275,0.0,0.0,50,0.00,,,0.00,WeatherCatV1.12B45,2013-01-23 00:46:00,
2013-01-22 19:51:00,14.5,-0.3,30.04,West,275,0.0,0.0,51,0.00,,,0.00,WeatherCatV1.12B45,2013-01-23 00:51:00,
2013-01-22 19:56:00,14.3,-0.9,30.04,West,275,0.0,0.0,50,0.00,,,0.00,WeatherCatV1.12B45,2013-01-23 00:56:00,
2013-01-22 20:01:00,14.2,-0.2,30.04,West,275,0.0,0.0,52,0.00,,,0.00,WeatherCatV1.12B45,2013-01-23 01:01:00,
2013-01-22 20:06:00,13.8,-0.1,30.04,West,275,0.0,0.0,53,0.00,,,0.00,WeatherCatV1.12B45,2013-01-23 01:06:00,
2013-01-22 20:07:00,13.8,-0.1,30.04,West,275,0.0,0.0,53,0.00,,,0.00,WeatherCatV1.12B45,2013-01-23 01:07:00,
2013-01-22 20:11:00,13.7,-0.2,30.05,West,275,0.0,0.0,53,0.00,,,0.00,WeatherCatV1.12B45,2013-01-23 01:11:00,
2013-01-22 20:16:00,13.4,-0.5,30.05,West,275,0.0,0.0,53,0.00,,,0.00,WeatherCatV1.12B45,2013-01-23 01:16:00,
2013-01-22 20:21:00,13.2,-0.3,30.05,West,275,0.0,0.0,54,0.00,,,0.00,WeatherCatV1.12B45,2013-01-23 01:21:00,
2013-01-22 20:26:00,12.9,-0.2,30.04,West,275,0.0,0.0,55,0.00,,,0.00,WeatherCatV1.12B45,2013-01-23 01:26:00,
2013-01-22 20:31:00,12.7,0.0,30.05,West,275,0.0,0.0,56,0.00,,,0.00,WeatherCatV1.12B45,2013-01-23 01:31:00,
2013-01-22 20:32:00,12.5,-0.2,30.04,West,275,0.0,0.0,56,0.00,,,0.00,WeatherCatV1.12B45,2013-01-23 01:32:00,
2013-01-22 20:37:00,12.4,-0.3,30.05,West,275,0.0,0.0,56,0.00,,,0.00,WeatherCatV1.12B45,2013-01-23 01:37:00,
2013-01-22 20:41:00,12.2,-0.5,30.05,West,275,1.0,3.0,56,0.00,,,0.00,WeatherCatV1.12B45,2013-01-23 01:41:00,
2013-01-22 20:46:00,12.2,-0.1,30.05,West,275,0.0,1.0,57,0.00,,,0.00,WeatherCatV1.12B45,2013-01-23 01:46:00,
2013-01-22 20:51:00,12.2,-0.1,30.04,West,275,0.0,0.0,57,0.00,,,0.00,WeatherCatV1.12B45,2013-01-23 01:51:00,
2013-01-22 20:56:00,12.2,0.3,30.04,West,275,0.0,0.0,58,0.00,,,0.00,WeatherCatV1.12B45,2013-01-23 01:56:00,
2013-01-22 20:57:00,12.2,0.3,30.05,West,275,0.0,0.0,58,0.00,,,0.00,WeatherCatV1.12B45,2013-01-23 01:57:00,
2013-01-22 21:02:00,12.0,0.5,30.05,West,275,0.0,0.0,59,0.00,,,0.00,WeatherCatV1.12B45,2013-01-23 02:02:00,
2013-01-22 21:07:00,11.9,0.7,30.05,West,275,0.0,0.0,60,0.00,,,0.00,WeatherCatV1.12B45,2013-01-23 02:07:00,
2013-01-22 21:12:00,11.9,1.1,30.05,West,275,0.0,0.0,61,0.00,,,0.00,WeatherCatV1.12B45,2013-01-23 02:12:00,
2013-01-22 21:17:00,12.0,1.5,30.05,West,275,0.0,0.0,62,0.00,,,0.00,WeatherCatV1.12B45,2013-01-23 02:17:00,
2013-01-22 21:21:00,12.0,1.2,30.05,West,275,0.0,0.0,61,0.00,,,0.00,WeatherCatV1.12B45,2013-01-23 02:21:00,
2013-01-22 21:26:00,12.0,1.5,30.05,West,275,0.0,0.0,62,0.00,,,0.00,WeatherCatV1.12B45,2013-01-23 02:26:00,
2013-01-22 21:32:00,12.2,1.7,30.06,West,275,0.0,0.0,62,0.00,,,0.00,WeatherCatV1.12B45,2013-01-23 02:32:00,
2013-01-22 21:36:00,12.2,1.7,30.06,West,275,0.0,0.0,62,0.00,,,0.00,WeatherCatV1.12B45,2013-01-23 02:36:00,
2013-01-22 21:37:00,12.2,1.7,30.06,West,275,0.0,0.0,62,0.00,,,0.00,WeatherCatV1.12B45,2013-01-23 02:37:00,
2013-01-22 21:41:00,12.1,2.0,30.06,West,275,0.0,0.0,63,0.00,,,0.00,WeatherCatV1.12B45,2013-01-23 02:41:00,
2013-01-22 21:44:00,12.0,1.9,30.06,West,275,0.0,0.0,63,0.00,,,0.00,WeatherCatV1.12B45,2013-01-23 02:44:00,
2013-01-22 21:46:00,12.0,1.9,30.06,West,275,0.0,0.0,63,0.00,,,0.00,WeatherCatV1.12B45,2013-01-23 02:46:00,
2013-01-22 21:51:00,11.9,1.4,30.07,West,275,0.0,0.0,62,0.00,,,0.00,WeatherCatV1.12B45,2013-01-23 02:51:00,
2013-01-22 21:56:00,11.5,1.0,30.06,West,275,0.0,0.0,62,0.00,,,0.00,WeatherCatV1.12B45,2013-01-23 02:56:00,
2013-01-22 22:01:00,11.4,0.9,30.07,West,275,0.0,0.0,62,0.00,,,0.00,WeatherCatV1.12B45,2013-01-23 03:01:00,
2013-01-22 22:06:00,11.2,1.4,30.07,West,275,0.0,0.0,64,0.00,,,0.00,WeatherCatV1.12B45,2013-01-23 03:06:00,
2013-01-22 22:11:00,11.0,1.2,30.07,West,275,0.0,0.0,64,0.00,,,0.00,WeatherCatV1.12B45,2013-01-23 03:11:00,
2013-01-22 22:16:00,10.8,1.4,30.07,West,275,0.0,0.0,65,0.00,,,0.00,WeatherCatV1.12B45,2013-01-23 03:16:00,
2013-01-22 22:22:00,10.6,1.5,30.07,West,275,0.0,0.0,66,0.00,,,0.00,WeatherCatV1.12B45,2013-01-23 03:22:00,
2013-01-22 22:26:00,10.7,1.9,30.07,West,275,0.0,0.0,67,0.00,,,0.00,WeatherCatV1.12B45,2013-01-23 03:26:00,
2013-01-22 22:31:00,10.5,1.7,30.07,West,275,0.0,0.0,67,0.00,,,0.00,WeatherCatV1.12B45,2013-01-23 03:31:00,
2013-01-22 22:36:00,10.2,1.5,30.07,West,275,0.0,0.0,67,0.00,,,0.00,WeatherCatV1.12B45,2013-01-23 03:36:00,
2013-01-22 22:41:00,10.2,1.5,30.08,West,275,0.0,0.0,67,0.00,,,0.00,WeatherCatV1.12B45,2013-01-23 03:41:00,
2013-01-22 22:46:00,10.0,1.6,30.08,West,275,0.0,0.0,68,0.00,,,0.00,WeatherCatV1.12B45,2013-01-23 03:46:00,
2013-01-22 22:51:00,10.0,1.6,30.08,West,275,0.0,0.0,68,0.00,,,0.00,WeatherCatV1.12B45,2013-01-23 03:51:00,
2013-01-22 22:56:00,10.0,1.6,30.08,West,275,0.0,0.0,68,0.00,,,0.00,WeatherCatV1.12B45,2013-01-23 03:56:00,
2013-01-22 23:01:00,10.0,1.6,30.08,West,275,0.0,0.0,68,0.00,,,0.04,WeatherCatV1.12B45,2013-01-23 04:01:00,
2013-01-22 23:02:00,10.0,1.6,30.09,West,275,0.0,0.0,68,34.72,,,0.40,WeatherCatV1.12B45,2013-01-23 04:02:00,
2013-01-22 23:07:00,10.0,1.6,30.08,West,275,0.0,0.0,68,0.05,,,0.40,WeatherCatV1.12B45,2013-01-23 04:07:00,
2013-01-22 23:11:00,10.0,1.6,30.08,West,275,0.0,0.0,68,0.00,,,0.40,WeatherCatV1.12B45,2013-01-23 04:11:00,
2013-01-22 23:16:00,10.0,1.9,30.08,West,275,0.0,1.0,69,0.00,,,0.40,WeatherCatV1.12B45,2013-01-23 04:16:00,
2013-01-22 23:21:00,9.8,1.7,30.08,West,275,0.0,0.0,69,0.00,,,0.40,WeatherCatV1.12B45,2013-01-23 04:21:00,
2013-01-22 23:26:00,10.0,1.6,30.08,West,275,0.0,0.0,68,0.00,,,0.40,WeatherCatV1.12B45,2013-01-23 04:26:00,
2013-01-22 23:31:00,10.0,1.3,30.08,West,275,0.0,0.0,67,0.00,,,0.40,WeatherCatV1.12B45,2013-01-23 04:31:00,
2013-01-22 23:36:00,9.8,1.1,30.08,West,275,0.0,0.0,67,0.00,,,0.40,WeatherCatV1.12B45,2013-01-23 04:36:00,
2013-01-22 23:37:00,10.0,1.3,30.08,West,275,0.0,0.0,67,0.00,,,0.40,WeatherCatV1.12B45,2013-01-23 04:37:00,
2013-01-22 23:42:00,9.8,1.1,30.08,West,275,0.0,0.0,67,0.00,,,0.40,WeatherCatV1.12B45,2013-01-23 04:42:00,
2013-01-22 23:46:00,9.8,0.8,30.08,West,275,0.0,0.0,66,0.00,,,0.40,WeatherCatV1.12B45,2013-01-23 04:46:00,
2013-01-22 23:51:00,9.4,0.4,30.08,West,275,0.0,0.0,66,0.00,,,0.40,WeatherCatV1.12B45,2013-01-23 04:51:00,
2013-01-22 23:56:00,9.2,0.2,30.08,West,275,0.0,0.0,66,0.00,,,0.40,WeatherCatV1.12B45,2013-01-23 04:56:00,
2013-01-22 23:59:00,9.2,0.2,30.07,West,275,0.0,0.0,66,0.00,,,0.40,WeatherCatV1.12B45,2013-01-23 04:59:00,